Pagina principale
METAR-TAF:

METAR-TAF

Aeroporti :

Firenze, Italia

Aeroporto di Firenze-Peretola

latitudine: 43-48N, longitudine: 011-12E, altezza: 40 m

Osservazione

Il bollettino è stato emesso 30 minuti fa, alle 00:20 UTC
Vento 12 kt da ovest/sud-ovest
Temperature 13°C
Umidità 88%
Pressione 1004 hPa
Visibilità 10 km o più
Nubi sparse ad un'altezza di 2000 ft
Nuvoloso ad un'altezza di 4000 ft
pioggia debole

METAR: LIRQ 170020Z 24012KT 9999 -RA SCT020 BKN040 13/11 Q1004

Ora: 01:50 (00:50 UTC)

Previsione

Il bollettino è stato emesso 1 ora e 50 minuti fa, alle 23:00 UTC
Previsione valida dal 17 alle 00 UTC al 17 alle 24 UTC
Vento 15 kt da ovest con raffiche fino a 25 kt
Visibilità 10 km o più
Nubi sparse ad un'altezza di 3000 ft
Evoluzione graduale
dal 17 alle 10 UTC al 17 alle 12 UTC
Vento 15 kt da nord-ovest

TAF: LIRQ 162300Z 1700/1724 26015G25KT 9999 SCT030 BECMG 1710/1712 32015KT

Osservazioni e previsioni meteorologiche di più di 4000 aeroporti (messaggi METAR e TAF).

Le stazioni disponibili sono rappresentate dai dischi gialli e rossi sulla carta.

Puntare il mouse per vedere il nome della stazione.

Clicca sopra per visualizzare le osservazioni e previsioni meteorologiche.

Per cambiare la mappa : fare clic sui pulsanti verdi con una croce nera per ingrandire, il pulsante verde con un trattino per diminuire, o sulla freccia verde per le mappe adiacenti.


METAR-TAF: